sensor_id;sensor_type;location;lat;lon;timestamp;P1;P2;P0
78316;PMS7003;67572;50.930;18.276;2023-09-30T00:01:41;12.67;12.67;12.00
78316;PMS7003;67572;50.930;18.276;2023-09-30T00:04:46;17.33;13.00;13.00
78316;PMS7003;67572;50.930;18.276;2023-09-30T00:07:49;13.00;13.00;13.00
78316;PMS7003;67572;50.930;18.276;2023-09-30T00:10:52;17.33;16.67;15.00
78316;PMS7003;67572;50.930;18.276;2023-09-30T00:13:57;15.00;15.00;13.67
78316;PMS7003;67572;50.930;18.276;2023-09-30T00:17:01;14.33;14.33;11.33
78316;PMS7003;67572;50.930;18.276;2023-09-30T00:20:05;13.67;12.33;11.33
78316;PMS7003;67572;50.930;18.276;2023-09-30T00:23:09;12.00;12.00;12.00
78316;PMS7003;67572;50.930;18.276;2023-09-30T00:26:12;23.33;18.00;15.00
78316;PMS7003;67572;50.930;18.276;2023-09-30T00:29:19;19.67;13.67;12.33
78316;PMS7003;67572;50.930;18.276;2023-09-30T00:32:22;19.00;18.33;16.00
78316;PMS7003;67572;50.930;18.276;2023-09-30T00:35:26;15.33;13.67;12.33
78316;PMS7003;67572;50.930;18.276;2023-09-30T00:38:29;23.33;16.67;15.33
78316;PMS7003;67572;50.930;18.276;2023-09-30T00:41:33;20.33;18.33;16.00
78316;PMS7003;67572;50.930;18.276;2023-09-30T00:44:38;15.00;15.00;13.00
78316;PMS7003;67572;50.930;18.276;2023-09-30T00:47:41;24.00;16.00;16.00
78316;PMS7003;67572;50.930;18.276;2023-09-30T00:50:45;19.00;18.00;16.00
78316;PMS7003;67572;50.930;18.276;2023-09-30T00:53:49;18.67;12.00;9.67
78316;PMS7003;67572;50.930;18.276;2023-09-30T00:56:54;18.00;12.33;12.00
78316;PMS7003;67572;50.930;18.276;2023-09-30T01:00:00;16.00;16.00;15.00
78316;PMS7003;67572;50.930;18.276;2023-09-30T01:03:05;18.67;13.00;13.00
78316;PMS7003;67572;50.930;18.276;2023-09-30T01:06:10;16.67;14.33;12.00
78316;PMS7003;67572;50.930;18.276;2023-09-30T01:09:15;16.00;15.00;14.33
78316;PMS7003;67572;50.930;18.276;2023-09-30T01:12:19;15.00;13.00;12.00
78316;PMS7003;67572;50.930;18.276;2023-09-30T01:15:24;12.00;9.67;9.00
78316;PMS7003;67572;50.930;18.276;2023-09-30T01:18:27;18.00;16.67;15.00
78316;PMS7003;67572;50.930;18.276;2023-09-30T01:21:34;14.33;12.67;12.00
78316;PMS7003;67572;50.930;18.276;2023-09-30T01:24:38;19.33;15.00;13.00
78316;PMS7003;67572;50.930;18.276;2023-09-30T01:27:42;16.00;15.00;13.00
78316;PMS7003;67572;50.930;18.276;2023-09-30T01:30:46;15.67;11.33;10.67
78316;PMS7003;67572;50.930;18.276;2023-09-30T01:33:49;18.67;16.00;15.33
78316;PMS7003;67572;50.930;18.276;2023-09-30T01:36:57;12.00;10.00;10.00
78316;PMS7003;67572;50.930;18.276;2023-09-30T01:40:01;16.00;15.00;13.00
78316;PMS7003;67572;50.930;18.276;2023-09-30T01:43:05;20.33;19.67;16.00
78316;PMS7003;67572;50.930;18.276;2023-09-30T01:46:08;16.00;15.00;13.00
78316;PMS7003;67572;50.930;18.276;2023-09-30T01:49:11;22.67;18.67;16.00
78316;PMS7003;67572;50.930;18.276;2023-09-30T01:52:16;12.67;11.33;11.33
78316;PMS7003;67572;50.930;18.276;2023-09-30T01:55:20;15.67;13.67;12.67
78316;PMS7003;67572;50.930;18.276;2023-09-30T01:58:23;12.00;12.00;12.00
78316;PMS7003;67572;50.930;18.276;2023-09-30T02:01:26;21.00;18.00;16.00
78316;PMS7003;67572;50.930;18.276;2023-09-30T02:04:30;18.00;16.00;15.33
78316;PMS7003;67572;50.930;18.276;2023-09-30T02:07:35;21.00;19.00;15.00
78316;PMS7003;67572;50.930;18.276;2023-09-30T02:10:38;18.33;16.33;15.00
78316;PMS7003;67572;50.930;18.276;2023-09-30T02:13:42;23.33;19.00;17.33
78316;PMS7003;67572;50.930;18.276;2023-09-30T02:16:46;18.33;16.67;15.00
78316;PMS7003;67572;50.930;18.276;2023-09-30T02:19:49;13.67;12.33;12.33
78316;PMS7003;67572;50.930;18.276;2023-09-30T02:22:56;18.00;16.00;15.00
78316;PMS7003;67572;50.930;18.276;2023-09-30T02:26:00;14.00;14.00;12.67
78316;PMS7003;67572;50.930;18.276;2023-09-30T02:29:04;18.00;18.00;16.00
78316;PMS7003;67572;50.930;18.276;2023-09-30T02:32:09;17.33;16.00;13.00
78316;PMS7003;67572;50.930;18.276;2023-09-30T02:35:12;9.67;9.67;9.33
78316;PMS7003;67572;50.930;18.276;2023-09-30T02:38:18;20.33;15.33;13.00
78316;PMS7003;67572;50.930;18.276;2023-09-30T02:41:22;16.00;16.00;16.00
78316;PMS7003;67572;50.930;18.276;2023-09-30T02:44:25;19.00;19.00;16.67
78316;PMS7003;67572;50.930;18.276;2023-09-30T02:47:29;16.00;16.00;15.00
78316;PMS7003;67572;50.930;18.276;2023-09-30T02:50:33;15.00;15.00;13.67
78316;PMS7003;67572;50.930;18.276;2023-09-30T02:53:38;18.67;18.67;18.00
78316;PMS7003;67572;50.930;18.276;2023-09-30T02:56:41;16.00;16.00;15.00
78316;PMS7003;67572;50.930;18.276;2023-09-30T02:59:47;17.33;17.33;15.33
78316;PMS7003;67572;50.930;18.276;2023-09-30T03:02:51;16.00;16.00;15.33
78316;PMS7003;67572;50.930;18.276;2023-09-30T03:05:56;24.00;19.00;18.00
78316;PMS7003;67572;50.930;18.276;2023-09-30T03:09:01;19.00;19.00;18.00
78316;PMS7003;67572;50.930;18.276;2023-09-30T03:12:06;24.67;23.33;20.33
78316;PMS7003;67572;50.930;18.276;2023-09-30T03:15:10;25.00;21.00;19.00
78316;PMS7003;67572;50.930;18.276;2023-09-30T03:18:14;21.67;21.67;20.33
78316;PMS7003;67572;50.930;18.276;2023-09-30T03:21:19;25.00;23.33;20.33
78316;PMS7003;67572;50.930;18.276;2023-09-30T03:24:24;20.33;20.33;19.00
78316;PMS7003;67572;50.930;18.276;2023-09-30T03:27:28;28.67;25.67;22.67
78316;PMS7003;67572;50.930;18.276;2023-09-30T03:30:32;22.67;21.33;18.67
78316;PMS7003;67572;50.930;18.276;2023-09-30T03:33:37;25.33;21.00;19.00
78316;PMS7003;67572;50.930;18.276;2023-09-30T03:36:41;24.33;22.00;19.00
78316;PMS7003;67572;50.930;18.276;2023-09-30T03:39:46;14.33;12.67;10.00
78316;PMS7003;67572;50.930;18.276;2023-09-30T03:42:51;18.00;18.00;16.67
78316;PMS7003;67572;50.930;18.276;2023-09-30T03:45:54;22.00;20.67;18.00
78316;PMS7003;67572;50.930;18.276;2023-09-30T03:48:59;26.67;25.33;21.00
78316;PMS7003;67572;50.930;18.276;2023-09-30T03:52:02;23.33;21.67;20.33
78316;PMS7003;67572;50.930;18.276;2023-09-30T03:55:09;24.00;23.33;20.33
78316;PMS7003;67572;50.930;18.276;2023-09-30T03:58:13;28.67;25.33;21.33
78316;PMS7003;67572;50.930;18.276;2023-09-30T04:01:17;28.33;23.33;19.00
78316;PMS7003;67572;50.930;18.276;2023-09-30T04:04:21;21.67;19.00;18.00
78316;PMS7003;67572;50.930;18.276;2023-09-30T04:07:24;16.67;14.33;10.00
78316;PMS7003;67572;50.930;18.276;2023-09-30T04:10:30;24.00;19.00;16.00
78316;PMS7003;67572;50.930;18.276;2023-09-30T04:13:34;16.67;15.33;12.00
78316;PMS7003;67572;50.930;18.276;2023-09-30T04:16:37;31.33;26.00;21.33
78316;PMS7003;67572;50.930;18.276;2023-09-30T04:19:40;23.00;21.33;18.33
78316;PMS7003;67572;50.930;18.276;2023-09-30T04:22:44;21.33;18.00;16.00
78316;PMS7003;67572;50.930;18.276;2023-09-30T04:25:52;18.33;16.00;12.33
78316;PMS7003;67572;50.930;18.276;2023-09-30T04:28:55;18.33;18.33;16.33
78316;PMS7003;67572;50.930;18.276;2023-09-30T04:31:58;21.00;18.33;15.00
78316;PMS7003;67572;50.930;18.276;2023-09-30T04:35:03;27.00;18.67;17.33
78316;PMS7003;67572;50.930;18.276;2023-09-30T04:38:06;22.00;19.67;17.33
78316;PMS7003;67572;50.930;18.276;2023-09-30T04:41:11;18.33;15.33;15.00
78316;PMS7003;67572;50.930;18.276;2023-09-30T04:44:14;24.33;21.00;18.00
78316;PMS7003;67572;50.930;18.276;2023-09-30T04:47:18;16.00;16.00;15.00
78316;PMS7003;67572;50.930;18.276;2023-09-30T04:50:21;24.00;21.00;18.33
78316;PMS7003;67572;50.930;18.276;2023-09-30T04:53:25;12.67;12.67;12.00
78316;PMS7003;67572;50.930;18.276;2023-09-30T04:56:30;19.00;18.33;16.67
78316;PMS7003;67572;50.930;18.276;2023-09-30T04:59:34;15.67;15.67;15.00
78316;PMS7003;67572;50.930;18.276;2023-09-30T05:02:37;19.00;19.00;18.00
78316;PMS7003;67572;50.930;18.276;2023-09-30T05:05:41;22.00;22.00;17.33
78316;PMS7003;67572;50.930;18.276;2023-09-30T05:08:44;20.67;18.33;16.67
78316;PMS7003;67572;50.930;18.276;2023-09-30T05:11:49;18.00;18.00;17.33
78316;PMS7003;67572;50.930;18.276;2023-09-30T05:14:52;17.33;16.00;15.00
78316;PMS7003;67572;50.930;18.276;2023-09-30T05:17:56;19.67;19.67;18.00
78316;PMS7003;67572;50.930;18.276;2023-09-30T05:21:00;20.33;20.33;18.00
78316;PMS7003;67572;50.930;18.276;2023-09-30T05:24:04;15.33;13.67;10.00
78316;PMS7003;67572;50.930;18.276;2023-09-30T05:27:09;17.33;17.33;15.67
78316;PMS7003;67572;50.930;18.276;2023-09-30T05:30:12;19.00;19.00;18.33
78316;PMS7003;67572;50.930;18.276;2023-09-30T05:33:17;20.33;19.00;16.00
78316;PMS7003;67572;50.930;18.276;2023-09-30T05:36:21;18.00;18.00;18.00
78316;PMS7003;67572;50.930;18.276;2023-09-30T05:39:25;30.00;27.00;21.00
78316;PMS7003;67572;50.930;18.276;2023-09-30T05:42:29;20.67;20.67;18.67
78316;PMS7003;67572;50.930;18.276;2023-09-30T05:45:33;21.33;21.33;18.00
78316;PMS7003;67572;50.930;18.276;2023-09-30T05:48:37;19.67;19.67;16.00
78316;PMS7003;67572;50.930;18.276;2023-09-30T05:51:41;21.00;21.00;17.33
78316;PMS7003;67572;50.930;18.276;2023-09-30T05:54:45;16.67;16.67;15.00
78316;PMS7003;67572;50.930;18.276;2023-09-30T05:57:49;18.00;18.00;15.00
78316;PMS7003;67572;50.930;18.276;2023-09-30T06:00:54;19.67;19.67;19.00
78316;PMS7003;67572;50.930;18.276;2023-09-30T06:03:57;22.67;18.67;16.67
78316;PMS7003;67572;50.930;18.276;2023-09-30T06:07:01;17.00;16.00;15.00
78316;PMS7003;67572;50.930;18.276;2023-09-30T06:10:05;19.67;18.67;17.33
78316;PMS7003;67572;50.930;18.276;2023-09-30T06:13:12;20.33;18.33;15.67
78316;PMS7003;67572;50.930;18.276;2023-09-30T06:16:17;17.00;15.67;15.33
78316;PMS7003;67572;50.930;18.276;2023-09-30T06:19:20;24.33;24.33;18.33
78316;PMS7003;67572;50.930;18.276;2023-09-30T06:22:24;18.33;18.33;16.00
78316;PMS7003;67572;50.930;18.276;2023-09-30T06:25:30;21.67;19.00;16.00
78316;PMS7003;67572;50.930;18.276;2023-09-30T06:28:36;16.67;16.67;15.00
78316;PMS7003;67572;50.930;18.276;2023-09-30T06:31:42;15.33;15.00;15.00
78316;PMS7003;67572;50.930;18.276;2023-09-30T06:34:46;23.00;20.67;17.33
78316;PMS7003;67572;50.930;18.276;2023-09-30T06:37:49;21.33;21.33;16.67
78316;PMS7003;67572;50.930;18.276;2023-09-30T06:40:52;19.00;19.00;18.33
78316;PMS7003;67572;50.930;18.276;2023-09-30T06:43:57;16.00;16.00;15.00
78316;PMS7003;67572;50.930;18.276;2023-09-30T06:47:01;19.33;19.33;15.33
78316;PMS7003;67572;50.930;18.276;2023-09-30T06:50:08;21.00;19.00;16.67
78316;PMS7003;67572;50.930;18.276;2023-09-30T06:53:14;21.33;19.67;18.00
78316;PMS7003;67572;50.930;18.276;2023-09-30T06:56:17;18.00;15.67;15.00
78316;PMS7003;67572;50.930;18.276;2023-09-30T06:59:22;13.33;9.00;9.00
78316;PMS7003;67572;50.930;18.276;2023-09-30T07:02:26;17.33;16.67;15.00
78316;PMS7003;67572;50.930;18.276;2023-09-30T07:05:30;21.00;18.00;13.67
78316;PMS7003;67572;50.930;18.276;2023-09-30T07:08:35;20.00;18.00;16.00
78316;PMS7003;67572;50.930;18.276;2023-09-30T07:11:38;19.00;19.00;16.00
78316;PMS7003;67572;50.930;18.276;2023-09-30T07:14:43;16.67;16.67;15.33
78316;PMS7003;67572;50.930;18.276;2023-09-30T07:17:47;18.33;16.00;15.00
78316;PMS7003;67572;50.930;18.276;2023-09-30T07:20:50;22.00;18.67;16.00
78316;PMS7003;67572;50.930;18.276;2023-09-30T07:23:54;19.00;19.00;18.00
78316;PMS7003;67572;50.930;18.276;2023-09-30T07:26:57;19.67;16.33;15.67
78316;PMS7003;67572;50.930;18.276;2023-09-30T07:30:05;19.00;17.33;16.00
78316;PMS7003;67572;50.930;18.276;2023-09-30T07:33:09;18.00;14.33;12.00
78316;PMS7003;67572;50.930;18.276;2023-09-30T07:36:13;23.33;16.00;15.00
78316;PMS7003;67572;50.930;18.276;2023-09-30T07:39:17;13.67;13.00;13.00
78316;PMS7003;67572;50.930;18.276;2023-09-30T07:42:20;22.00;18.67;15.33
78316;PMS7003;67572;50.930;18.276;2023-09-30T07:45:26;22.33;15.00;13.00
78316;PMS7003;67572;50.930;18.276;2023-09-30T07:48:30;22.33;16.67;15.00
78316;PMS7003;67572;50.930;18.276;2023-09-30T07:51:34;19.00;15.67;15.33
78316;PMS7003;67572;50.930;18.276;2023-09-30T07:54:38;12.33;12.33;12.00
78316;PMS7003;67572;50.930;18.276;2023-09-30T07:57:41;8.00;5.33;4.67
78316;PMS7003;67572;50.930;18.276;2023-09-30T08:00:49;19.67;16.67;15.00
78316;PMS7003;67572;50.930;18.276;2023-09-30T08:03:52;12.00;10.00;10.00
78316;PMS7003;67572;50.930;18.276;2023-09-30T08:06:56;15.67;12.33;9.33
78316;PMS7003;67572;50.930;18.276;2023-09-30T08:10:00;15.67;14.00;12.33
78316;PMS7003;67572;50.930;18.276;2023-09-30T08:13:06;12.00;12.00;12.00
78316;PMS7003;67572;50.930;18.276;2023-09-30T08:16:11;13.67;13.67;13.00
78316;PMS7003;67572;50.930;18.276;2023-09-30T08:19:15;10.00;9.00;7.00
78316;PMS7003;67572;50.930;18.276;2023-09-30T08:22:18;6.33;4.00;4.00
78316;PMS7003;67572;50.930;18.276;2023-09-30T08:25:23;19.00;15.00;13.00
78316;PMS7003;67572;50.930;18.276;2023-09-30T08:28:26;22.33;16.00;15.33
78316;PMS7003;67572;50.930;18.276;2023-09-30T08:31:31;16.67;15.00;13.00
78316;PMS7003;67572;50.930;18.276;2023-09-30T08:34:35;13.00;13.00;12.33
78316;PMS7003;67572;50.930;18.276;2023-09-30T08:37:39;12.67;12.67;12.33
78316;PMS7003;67572;50.930;18.276;2023-09-30T08:40:47;27.00;21.00;18.67
78316;PMS7003;67572;50.930;18.276;2023-09-30T08:43:54;17.00;15.00;13.00
78316;PMS7003;67572;50.930;18.276;2023-09-30T08:47:02;20.67;16.00;16.00
78316;PMS7003;67572;50.930;18.276;2023-09-30T08:50:07;16.00;15.00;13.67
78316;PMS7003;67572;50.930;18.276;2023-09-30T08:53:12;9.67;7.67;7.00
78316;PMS7003;67572;50.930;18.276;2023-09-30T08:56:19;9.00;8.33;7.67
78316;PMS7003;67572;50.930;18.276;2023-09-30T08:59:27;12.00;9.67;9.00
78316;PMS7003;67572;50.930;18.276;2023-09-30T09:02:32;6.00;4.00;4.00
78316;PMS7003;67572;50.930;18.276;2023-09-30T09:05:37;13.67;11.67;10.33
78316;PMS7003;67572;50.930;18.276;2023-09-30T09:08:40;9.33;4.00;4.00
78316;PMS7003;67572;50.930;18.276;2023-09-30T09:11:44;6.00;4.00;4.00
78316;PMS7003;67572;50.930;18.276;2023-09-30T09:14:48;6.00;4.00;4.00
78316;PMS7003;67572;50.930;18.276;2023-09-30T09:17:56;3.00;3.00;3.00
78316;PMS7003;67572;50.930;18.276;2023-09-30T09:21:07;3.33;3.00;2.33
78316;PMS7003;67572;50.930;18.276;2023-09-30T09:24:12;3.00;3.00;3.00
78316;PMS7003;67572;50.930;18.276;2023-09-30T09:27:33;3.67;2.33;1.00
78316;PMS7003;67572;50.930;18.276;2023-09-30T09:30:38;4.00;4.00;4.00
78316;PMS7003;67572;50.930;18.276;2023-09-30T09:33:44;3.00;1.00;1.00
78316;PMS7003;67572;50.930;18.276;2023-09-30T09:36:48;1.00;1.00;1.00
78316;PMS7003;67572;50.930;18.276;2023-09-30T09:39:52;1.00;1.00;1.00
78316;PMS7003;67572;50.930;18.276;2023-09-30T09:42:58;4.00;0.00;0.00
78316;PMS7003;67572;50.930;18.276;2023-09-30T09:46:07;4.00;2.33;1.00
78316;PMS7003;67572;50.930;18.276;2023-09-30T09:49:13;4.00;2.33;2.33
78316;PMS7003;67572;50.930;18.276;2023-09-30T09:52:21;3.33;1.67;1.67
78316;PMS7003;67572;50.930;18.276;2023-09-30T09:55:26;3.00;3.00;2.33
78316;PMS7003;67572;50.930;18.276;2023-09-30T09:58:31;1.00;1.00;0.67
78316;PMS7003;67572;50.930;18.276;2023-09-30T10:01:36;1.00;1.00;1.00
78316;PMS7003;67572;50.930;18.276;2023-09-30T10:04:43;0.67;0.00;0.00
78316;PMS7003;67572;50.930;18.276;2023-09-30T10:07:50;0.00;0.00;0.00
78316;PMS7003;67572;50.930;18.276;2023-09-30T10:10:59;1.00;1.00;1.00
78316;PMS7003;67572;50.930;18.276;2023-09-30T10:14:04;4.67;1.67;1.00
78316;PMS7003;67572;50.930;18.276;2023-09-30T10:17:13;0.00;0.00;0.00
78316;PMS7003;67572;50.930;18.276;2023-09-30T10:20:19;1.67;1.00;1.00
78316;PMS7003;67572;50.930;18.276;2023-09-30T10:23:30;1.67;1.67;1.67
78316;PMS7003;67572;50.930;18.276;2023-09-30T10:26:35;3.00;3.00;3.00
78316;PMS7003;67572;50.930;18.276;2023-09-30T10:29:39;3.67;3.33;3.33
78316;PMS7003;67572;50.930;18.276;2023-09-30T10:36:24;1.00;1.00;1.00
78316;PMS7003;67572;50.930;18.276;2023-09-30T10:43:00;0.67;0.00;0.00
78316;PMS7003;67572;50.930;18.276;2023-09-30T10:46:05;3.00;1.00;1.00
78316;PMS7003;67572;50.930;18.276;2023-09-30T10:49:36;1.00;1.00;1.00
78316;PMS7003;67572;50.930;18.276;2023-09-30T10:52:42;1.00;1.00;1.00
78316;PMS7003;67572;50.930;18.276;2023-09-30T10:55:45;3.00;1.00;1.00
78316;PMS7003;67572;50.930;18.276;2023-09-30T10:58:49;1.00;1.00;1.00
78316;PMS7003;67572;50.930;18.276;2023-09-30T11:01:54;1.00;1.00;1.00
78316;PMS7003;67572;50.930;18.276;2023-09-30T11:05:03;1.00;1.00;1.00
78316;PMS7003;67572;50.930;18.276;2023-09-30T11:08:13;3.00;3.00;3.00
78316;PMS7003;67572;50.930;18.276;2023-09-30T11:11:31;3.00;3.00;3.00
78316;PMS7003;67572;50.930;18.276;2023-09-30T11:14:38;1.67;1.00;1.00
78316;PMS7003;67572;50.930;18.276;2023-09-30T11:17:42;0.67;0.00;0.00
78316;PMS7003;67572;50.930;18.276;2023-09-30T11:20:46;4.00;1.00;1.00
78316;PMS7003;67572;50.930;18.276;2023-09-30T11:23:51;1.00;1.00;1.00
78316;PMS7003;67572;50.930;18.276;2023-09-30T11:26:55;4.00;4.00;4.00
78316;PMS7003;67572;50.930;18.276;2023-09-30T11:29:58;3.00;1.00;0.33
78316;PMS7003;67572;50.930;18.276;2023-09-30T11:33:05;3.00;1.00;1.00
78316;PMS7003;67572;50.930;18.276;2023-09-30T11:36:09;2.67;0.00;0.00
78316;PMS7003;67572;50.930;18.276;2023-09-30T11:39:22;0.33;0.33;0.33
78316;PMS7003;67572;50.930;18.276;2023-09-30T11:42:26;0.00;0.00;0.00
78316;PMS7003;67572;50.930;18.276;2023-09-30T11:45:30;2.33;1.00;1.00
78316;PMS7003;67572;50.930;18.276;2023-09-30T11:48:33;1.00;1.00;1.00
78316;PMS7003;67572;50.930;18.276;2023-09-30T11:51:42;0.67;0.67;0.67
78316;PMS7003;67572;50.930;18.276;2023-09-30T11:54:49;2.00;2.00;1.00
78316;PMS7003;67572;50.930;18.276;2023-09-30T11:57:52;0.00;0.00;0.00
78316;PMS7003;67572;50.930;18.276;2023-09-30T12:00:57;0.67;0.67;0.67
78316;PMS7003;67572;50.930;18.276;2023-09-30T12:04:01;3.00;0.33;0.33
78316;PMS7003;67572;50.930;18.276;2023-09-30T12:07:05;0.67;0.67;0.67
78316;PMS7003;67572;50.930;18.276;2023-09-30T12:10:12;1.00;1.00;1.00
78316;PMS7003;67572;50.930;18.276;2023-09-30T12:13:18;1.00;1.00;1.00
78316;PMS7003;67572;50.930;18.276;2023-09-30T12:16:21;3.00;0.00;0.00
78316;PMS7003;67572;50.930;18.276;2023-09-30T12:19:25;6.00;2.33;1.00
78316;PMS7003;67572;50.930;18.276;2023-09-30T12:22:29;0.25;0.25;0.25
78316;PMS7003;67572;50.930;18.276;2023-09-30T12:25:34;0.00;0.00;0.00
78316;PMS7003;67572;50.930;18.276;2023-09-30T12:28:39;0.00;0.00;0.00
78316;PMS7003;67572;50.930;18.276;2023-09-30T12:31:42;2.25;1.00;0.00
78316;PMS7003;67572;50.930;18.276;2023-09-30T12:34:54;0.00;0.00;0.00
78316;PMS7003;67572;50.930;18.276;2023-09-30T12:37:58;0.00;0.00;0.00
78316;PMS7003;67572;50.930;18.276;2023-09-30T12:41:02;1.00;0.00;0.00
78316;PMS7003;67572;50.930;18.276;2023-09-30T12:44:06;0.00;0.00;0.00
78316;PMS7003;67572;50.930;18.276;2023-09-30T12:47:10;1.00;1.00;1.00
78316;PMS7003;67572;50.930;18.276;2023-09-30T12:50:14;0.25;0.25;0.00
78316;PMS7003;67572;50.930;18.276;2023-09-30T12:53:18;2.50;0.00;0.00
78316;PMS7003;67572;50.930;18.276;2023-09-30T12:56:22;2.00;1.00;0.00
78316;PMS7003;67572;50.930;18.276;2023-09-30T12:59:30;0.00;0.00;0.00
78316;PMS7003;67572;50.930;18.276;2023-09-30T13:02:35;0.75;0.75;0.00
78316;PMS7003;67572;50.930;18.276;2023-09-30T13:05:40;0.00;0.00;0.00
78316;PMS7003;67572;50.930;18.276;2023-09-30T13:08:45;1.75;0.25;0.00
78316;PMS7003;67572;50.930;18.276;2023-09-30T13:11:51;0.00;0.00;0.00
78316;PMS7003;67572;50.930;18.276;2023-09-30T13:14:54;0.00;0.00;0.00
78316;PMS7003;67572;50.930;18.276;2023-09-30T13:17:58;1.00;1.00;1.00
78316;PMS7003;67572;50.930;18.276;2023-09-30T13:21:02;0.75;0.75;0.25
78316;PMS7003;67572;50.930;18.276;2023-09-30T13:24:08;0.00;0.00;0.00
78316;PMS7003;67572;50.930;18.276;2023-09-30T13:27:13;0.00;0.00;0.00
78316;PMS7003;67572;50.930;18.276;2023-09-30T13:30:17;1.00;1.00;1.00
78316;PMS7003;67572;50.930;18.276;2023-09-30T13:33:21;0.00;0.00;0.00
78316;PMS7003;67572;50.930;18.276;2023-09-30T13:36:24;2.50;1.00;1.00
78316;PMS7003;67572;50.930;18.276;2023-09-30T13:39:27;0.25;0.25;0.00
78316;PMS7003;67572;50.930;18.276;2023-09-30T13:42:32;0.00;0.00;0.00
78316;PMS7003;67572;50.930;18.276;2023-09-30T13:45:36;1.00;1.00;0.00
78316;PMS7003;67572;50.930;18.276;2023-09-30T13:48:39;0.75;0.75;0.75
78316;PMS7003;67572;50.930;18.276;2023-09-30T13:51:43;0.75;0.75;0.75
78316;PMS7003;67572;50.930;18.276;2023-09-30T13:54:49;1.00;1.00;1.00
78316;PMS7003;67572;50.930;18.276;2023-09-30T13:57:54;0.00;0.00;0.00
78316;PMS7003;67572;50.930;18.276;2023-09-30T14:00:57;0.00;0.00;0.00
78316;PMS7003;67572;50.930;18.276;2023-09-30T14:04:01;0.75;0.00;0.00
78316;PMS7003;67572;50.930;18.276;2023-09-30T14:07:06;1.25;1.25;1.25
78316;PMS7003;67572;50.930;18.276;2023-09-30T14:10:10;0.00;0.00;0.00
78316;PMS7003;67572;50.930;18.276;2023-09-30T14:13:14;0.50;0.50;0.50
78316;PMS7003;67572;50.930;18.276;2023-09-30T14:16:18;0.00;0.00;0.00
78316;PMS7003;67572;50.930;18.276;2023-09-30T14:19:21;1.00;1.00;1.00
78316;PMS7003;67572;50.930;18.276;2023-09-30T14:22:25;0.00;0.00;0.00
78316;PMS7003;67572;50.930;18.276;2023-09-30T14:25:29;0.00;0.00;0.00
78316;PMS7003;67572;50.930;18.276;2023-09-30T14:28:34;0.00;0.00;0.00
78316;PMS7003;67572;50.930;18.276;2023-09-30T14:31:37;0.00;0.00;0.00
78316;PMS7003;67572;50.930;18.276;2023-09-30T14:34:40;0.00;0.00;0.00
78316;PMS7003;67572;50.930;18.276;2023-09-30T14:37:44;0.00;0.00;0.00
78316;PMS7003;67572;50.930;18.276;2023-09-30T14:40:47;0.50;0.00;0.00
78316;PMS7003;67572;50.930;18.276;2023-09-30T14:43:53;0.00;0.00;0.00
78316;PMS7003;67572;50.930;18.276;2023-09-30T14:46:56;1.00;0.75;0.75
78316;PMS7003;67572;50.930;18.276;2023-09-30T14:50:00;0.00;0.00;0.00
78316;PMS7003;67572;50.930;18.276;2023-09-30T14:53:05;0.00;0.00;0.00
78316;PMS7003;67572;50.930;18.276;2023-09-30T14:56:14;0.00;0.00;0.00
78316;PMS7003;67572;50.930;18.276;2023-09-30T14:59:19;0.00;0.00;0.00
78316;PMS7003;67572;50.930;18.276;2023-09-30T15:02:23;0.33;0.00;0.00
78316;PMS7003;67572;50.930;18.276;2023-09-30T15:05:28;0.00;0.00;0.00
78316;PMS7003;67572;50.930;18.276;2023-09-30T15:08:31;0.00;0.00;0.00
78316;PMS7003;67572;50.930;18.276;2023-09-30T15:11:35;0.00;0.00;0.00
78316;PMS7003;67572;50.930;18.276;2023-09-30T15:14:40;0.67;0.67;0.67
78316;PMS7003;67572;50.930;18.276;2023-09-30T15:17:43;0.00;0.00;0.00
78316;PMS7003;67572;50.930;18.276;2023-09-30T15:20:48;1.00;1.00;1.00
78316;PMS7003;67572;50.930;18.276;2023-09-30T15:23:52;0.00;0.00;0.00
78316;PMS7003;67572;50.930;18.276;2023-09-30T15:26:55;1.67;0.00;0.00
78316;PMS7003;67572;50.930;18.276;2023-09-30T15:30:00;0.33;0.33;0.33
78316;PMS7003;67572;50.930;18.276;2023-09-30T15:33:05;0.00;0.00;0.00
78316;PMS7003;67572;50.930;18.276;2023-09-30T15:36:10;0.00;0.00;0.00
78316;PMS7003;67572;50.930;18.276;2023-09-30T15:39:14;0.00;0.00;0.00
78316;PMS7003;67572;50.930;18.276;2023-09-30T15:42:17;0.00;0.00;0.00
78316;PMS7003;67572;50.930;18.276;2023-09-30T15:45:23;0.00;0.00;0.00
78316;PMS7003;67572;50.930;18.276;2023-09-30T15:48:26;3.00;0.00;0.00
78316;PMS7003;67572;50.930;18.276;2023-09-30T15:51:30;4.00;0.00;0.00
78316;PMS7003;67572;50.930;18.276;2023-09-30T15:54:33;0.00;0.00;0.00
78316;PMS7003;67572;50.930;18.276;2023-09-30T15:57:37;0.00;0.00;0.00
78316;PMS7003;67572;50.930;18.276;2023-09-30T16:00:45;0.00;0.00;0.00
78316;PMS7003;67572;50.930;18.276;2023-09-30T16:03:50;0.00;0.00;0.00
78316;PMS7003;67572;50.930;18.276;2023-09-30T16:06:55;0.67;0.67;0.67
78316;PMS7003;67572;50.930;18.276;2023-09-30T16:09:58;0.00;0.00;0.00
78316;PMS7003;67572;50.930;18.276;2023-09-30T16:13:02;0.67;0.67;0.67
78316;PMS7003;67572;50.930;18.276;2023-09-30T16:16:09;0.33;0.00;0.00
78316;PMS7003;67572;50.930;18.276;2023-09-30T16:19:13;0.00;0.00;0.00
78316;PMS7003;67572;50.930;18.276;2023-09-30T16:22:17;0.33;0.00;0.00
78316;PMS7003;67572;50.930;18.276;2023-09-30T16:25:20;1.00;0.00;0.00
78316;PMS7003;67572;50.930;18.276;2023-09-30T16:28:24;0.00;0.00;0.00
78316;PMS7003;67572;50.930;18.276;2023-09-30T16:31:29;0.00;0.00;0.00
78316;PMS7003;67572;50.930;18.276;2023-09-30T16:34:33;1.00;1.00;1.00
78316;PMS7003;67572;50.930;18.276;2023-09-30T16:37:37;0.67;0.67;0.67
78316;PMS7003;67572;50.930;18.276;2023-09-30T16:40:41;1.00;1.00;1.00
78316;PMS7003;67572;50.930;18.276;2023-09-30T16:43:49;1.00;1.00;1.00
78316;PMS7003;67572;50.930;18.276;2023-09-30T16:46:54;0.00;0.00;0.00
78316;PMS7003;67572;50.930;18.276;2023-09-30T16:49:58;1.67;1.67;1.00
78316;PMS7003;67572;50.930;18.276;2023-09-30T16:53:02;1.00;1.00;1.00
78316;PMS7003;67572;50.930;18.276;2023-09-30T16:56:06;3.00;3.00;3.00
78316;PMS7003;67572;50.930;18.276;2023-09-30T16:59:09;4.67;4.00;4.00
78316;PMS7003;67572;50.930;18.276;2023-09-30T17:02:14;5.33;5.33;4.00
78316;PMS7003;67572;50.930;18.276;2023-09-30T17:05:19;0.67;0.67;0.00
78316;PMS7003;67572;50.930;18.276;2023-09-30T17:08:22;1.67;1.67;1.67
78316;PMS7003;67572;50.930;18.276;2023-09-30T17:11:26;3.00;3.00;3.00
78316;PMS7003;67572;50.930;18.276;2023-09-30T17:14:29;6.00;4.00;3.00
78316;PMS7003;67572;50.930;18.276;2023-09-30T17:17:34;3.00;3.00;3.00
78316;PMS7003;67572;50.930;18.276;2023-09-30T17:20:40;4.00;4.00;4.00
78316;PMS7003;67572;50.930;18.276;2023-09-30T17:23:44;3.33;3.33;3.00
78316;PMS7003;67572;50.930;18.276;2023-09-30T17:26:47;1.67;1.67;1.00
78316;PMS7003;67572;50.930;18.276;2023-09-30T17:29:51;0.00;0.00;0.00